Time;durP1;ratioP1;P1;durP2;ratioP2;P2;SDS_P1;SDS_P2;PMS_P1;PMS_P2;Temp;Humidity;BMP_temperature;BMP_pressure;BME280_temperature;BME280_humidity;BME280_pressure;Samples;Min_cycle;Max_cycle;Signal;HPM_P1;HPM_P2
2022/09/02 00:00:43;;;;;;;4.15;3.40;;;18.30;1.00;;;;;;4972320;28;20172;-71
2022/09/02 00:03:08;;;;;;;4.63;3.33;;;18.30;1.00;;;;;;4972237;28;20275;-71
2022/09/02 00:05:34;;;;;;;3.92;3.40;;;18.30;1.00;;;;;;4971954;28;20310;-72
2022/09/02 00:08:00;;;;;;;4.30;3.00;;;18.30;1.00;;;;;;4972316;28;20172;-71
2022/09/02 00:10:25;;;;;;;4.40;3.22;;;18.20;1.00;;;;;;4971018;28;20599;-71
2022/09/02 00:12:51;;;;;;;4.35;3.35;;;18.20;47.30;;;;;;4972143;28;20168;-72
2022/09/02 00:15:17;;;;;;;7.90;3.58;;;18.10;99.90;;;;;;4971606;28;20587;-72
2022/09/02 00:17:43;;;;;;;7.07;3.55;;;18.20;99.90;;;;;;4971862;28;20223;-71
2022/09/02 00:20:08;;;;;;;4.13;3.40;;;18.10;99.90;;;;;;4971865;28;20631;-71
2022/09/02 00:22:34;;;;;;;6.60;3.50;;;18.10;99.90;;;;;;4972169;28;20172;-72
2022/09/02 00:25:00;;;;;;;7.05;3.33;;;18.00;1.00;;;;;;4971996;28;20528;-71
2022/09/02 00:27:25;;;;;;;3.95;3.00;;;18.00;1.00;;;;;;4972050;28;20203;-71
2022/09/02 00:29:52;;;;;;;4.85;3.70;;;18.00;1.00;;;;;;4970870;28;20168;-71
2022/09/02 00:32:18;;;;;;;9.35;3.13;;;18.00;15.50;;;;;;4971681;28;20180;-71
2022/09/02 00:34:44;;;;;;;7.13;3.30;;;17.90;99.90;;;;;;4971611;28;20195;-71
2022/09/02 00:37:09;;;;;;;4.05;3.22;;;18.00;99.90;;;;;;4971717;28;20668;-71
2022/09/02 00:39:35;;;;;;;6.97;3.37;;;17.90;1.00;;;;;;4971758;28;20631;-71
2022/09/02 00:42:02;;;;;;;5.53;3.30;;;17.80;1.00;;;;;;4970528;28;20172;-72
2022/09/02 00:44:29;;;;;;;4.57;3.10;;;17.80;1.00;;;;;;4971670;28;20179;-72
2022/09/02 00:46:55;;;;;;;5.70;3.30;;;17.80;99.90;;;;;;4971686;28;20175;-72
2022/09/02 00:49:25;;;;;;;5.77;3.13;;;17.80;1.00;;;;;;4971396;28;20576;-72
2022/09/02 00:52:08;;;;;;;4.50;3.03;;;17.70;99.90;;;;;;4971599;28;20178;-71
2022/09/02 00:54:38;;;;;;;9.60;3.10;;;17.70;1.00;;;;;;4971617;28;20534;-73
2022/09/02 00:57:10;;;;;;;10.17;3.17;;;17.70;99.90;;;;;;4971594;28;20586;-71
2022/09/02 00:59:50;;;;;;;7.10;3.20;;;17.60;1.00;;;;;;4971583;28;20174;-71
2022/09/02 01:02:16;;;;;;;3.47;3.20;;;17.60;99.90;;;;;;4971006;28;20718;-72
2022/09/02 01:04:42;;;;;;;6.50;3.57;;;17.50;1.00;;;;;;4971607;28;20263;-72
2022/09/02 01:07:08;;;;;;;3.90;3.40;;;17.40;99.90;;;;;;4971609;28;20255;-71
2022/09/02 01:09:35;;;;;;;3.43;3.10;;;17.30;1.00;;;;;;4971414;28;20211;-72
2022/09/02 01:12:02;;;;;;;6.57;3.20;;;17.30;1.10;;;;;;4971490;28;20180;-72
2022/09/02 01:14:29;;;;;;;5.17;3.37;;;17.30;1.00;;;;;;4971084;28;20235;-72
2022/09/02 01:17:01;;;;;;;7.13;3.53;;;17.20;1.00;;;;;;4970799;28;20230;-71
2022/09/02 01:19:37;;;;;;;4.23;3.00;;;17.20;99.90;;;;;;4971582;28;20184;-72
2022/09/02 01:22:15;;;;;;;3.40;3.10;;;17.20;99.90;;;;;;4972062;28;20182;-70
2022/09/02 01:24:41;;;;;;;4.27;3.23;;;17.20;1.00;;;;;;4974798;28;20627;-72
2022/09/02 01:27:07;;;;;;;3.30;3.00;;;17.10;1.00;;;;;;4974723;28;20180;-71
2022/09/02 01:29:32;;;;;;;5.60;3.00;;;17.10;1.00;;;;;;4974315;28;20280;-71
2022/09/02 01:31:58;;;;;;;4.10;3.03;;;17.10;99.90;;;;;;4973061;28;20223;-72
2022/09/02 01:34:24;;;;;;;6.40;3.57;;;17.10;1.00;;;;;;4974696;28;20180;-72
2022/09/02 01:36:50;;;;;;;3.40;3.10;;;17.10;1.00;;;;;;4974374;28;20204;-71
2022/09/02 01:39:16;;;;;;;4.70;3.27;;;17.10;1.00;;;;;;4974444;28;20198;-71
2022/09/02 01:41:42;;;;;;;9.80;3.23;;;17.10;1.00;;;;;;4974411;28;20183;-71
2022/09/02 01:44:09;;;;;;;4.17;3.03;;;17.00;56.90;;;;;;4974474;28;20559;-71
2022/09/02 01:46:35;;;;;;;3.57;3.27;;;17.00;1.00;;;;;;4973965;28;20168;-71
2022/09/02 01:49:00;;;;;;;3.50;3.20;;;17.10;1.00;;;;;;4974398;28;20180;-71
2022/09/02 01:51:26;;;;;;;4.17;3.37;;;17.10;99.90;;;;;;4972936;28;20640;-71
2022/09/02 01:53:52;;;;;;;6.50;3.10;;;17.10;99.90;;;;;;4974315;28;20263;-72
2022/09/02 01:56:17;;;;;;;5.50;3.63;;;17.10;1.00;;;;;;4974110;28;20219;-71
2022/09/02 01:58:43;;;;;;;6.80;3.37;;;17.10;1.00;;;;;;4974123;28;20184;-71
2022/09/02 02:01:10;;;;;;;8.33;3.60;;;17.00;1.00;;;;;;4973737;28;20176;-71
2022/09/02 02:03:36;;;;;;;9.53;3.60;;;17.00;99.90;;;;;;4972706;28;20229;-71
2022/09/02 02:06:09;;;;;;;14.03;3.77;;;17.00;16.10;;;;;;4974128;28;20184;-71
2022/09/02 02:08:34;;;;;;;8.47;3.73;;;17.00;99.90;;;;;;4973957;28;20172;-71
2022/09/02 02:11:00;;;;;;;12.50;3.93;;;16.90;1.00;;;;;;4974140;28;20226;-71
2022/09/02 02:13:26;;;;;;;11.53;4.03;;;16.90;1.00;;;;;;4973507;28;20218;-72
2022/09/02 02:15:51;;;;;;;6.17;3.80;;;16.90;1.00;;;;;;4973611;28;20524;-71
2022/09/02 02:18:17;;;;;;;13.87;4.00;;;16.90;1.00;;;;;;4973726;28;20602;-71
2022/09/02 02:20:43;;;;;;;10.33;3.53;;;16.80;99.90;;;;;;4974085;28;20229;-72
2022/09/02 02:23:09;;;;;;;6.57;3.93;;;16.80;99.90;;;;;;4973778;28;20167;-71
2022/09/02 02:25:34;;;;;;;5.67;3.50;;;16.70;99.90;;;;;;4973696;28;20262;-71
2022/09/02 02:28:00;;;;;;;4.27;2.90;;;16.70;1.00;;;;;;4973686;28;20176;-71
2022/09/02 02:30:26;;;;;;;3.43;3.13;;;16.70;1.00;;;;;;4973394;28;20187;-72
2022/09/02 02:32:52;;;;;;;6.30;3.47;;;16.80;99.90;;;;;;4972384;28;20180;-71
2022/09/02 02:35:18;;;;;;;6.43;3.67;;;16.80;99.90;;;;;;4973671;28;20584;-72
2022/09/02 02:37:47;;;;;;;4.87;3.60;;;16.80;99.90;;;;;;4973524;28;20211;-71
2022/09/02 02:40:15;;;;;;;4.73;3.57;;;16.80;99.90;;;;;;4973623;28;20180;-71
2022/09/02 02:42:40;;;;;;;5.70;3.40;;;16.70;1.00;;;;;;4973291;28;20172;-71
2022/09/02 02:45:08;;;;;;;5.43;3.40;;;16.70;1.00;;;;;;4973114;28;20631;-71
2022/09/02 02:47:39;;;;;;;6.33;4.50;;;16.60;1.00;;;;;;4973159;28;20184;-71
2022/09/02 02:50:07;;;;;;;4.17;3.83;;;16.60;1.00;;;;;;4973359;28;20251;-72
2022/09/02 02:52:32;;;;;;;6.67;3.40;;;16.60;1.00;;;;;;4973391;28;20527;-71
2022/09/02 02:54:58;;;;;;;6.53;3.90;;;16.50;36.20;;;;;;4973407;28;20180;-71
2022/09/02 02:57:24;;;;;;;4.37;3.47;;;16.50;82.50;;;;;;4972943;28;20207;-71
2022/09/02 02:59:49;;;;;;;5.43;3.30;;;16.50;91.20;;;;;;4973083;28;20172;-71
2022/09/02 03:02:16;;;;;;;5.10;3.30;;;16.60;99.90;;;;;;4973111;28;20176;-71
2022/09/02 03:04:41;;;;;;;6.67;3.60;;;16.60;92.00;;;;;;4973244;28;20198;-71
2022/09/02 03:07:07;;;;;;;6.97;3.50;;;16.50;99.90;;;;;;4973101;28;20639;-71
2022/09/02 03:09:34;;;;;;;4.73;3.30;;;16.50;99.90;;;;;;4973396;28;20175;-71
2022/09/02 03:12:00;;;;;;;5.17;3.23;;;16.40;99.90;;;;;;4972830;28;20221;-72
2022/09/02 03:14:26;;;;;;;4.03;3.67;;;16.40;99.90;;;;;;4972257;28;20219;-71
2022/09/02 03:16:52;;;;;;;6.17;3.90;;;16.40;99.90;;;;;;4972722;28;20200;-71
2022/09/02 03:19:18;;;;;;;5.47;3.67;;;16.40;99.90;;;;;;4972524;28;20174;-71
2022/09/02 03:21:43;;;;;;;5.07;3.77;;;16.40;99.90;;;;;;4972447;28;20516;-71
2022/09/02 03:24:10;;;;;;;4.70;3.60;;;16.40;99.90;;;;;;4972990;28;20651;-71
2022/09/02 03:26:36;;;;;;;8.70;3.50;;;16.40;99.90;;;;;;4972942;28;20173;-72
2022/09/02 03:29:03;;;;;;;6.37;3.60;;;16.40;99.90;;;;;;4972238;28;20172;-71
2022/09/02 03:31:28;;;;;;;9.63;4.03;;;16.40;99.90;;;;;;4972228;28;20172;-71
2022/09/02 03:33:54;;;;;;;11.57;4.10;;;16.50;99.90;;;;;;4972401;28;20631;-70
2022/09/02 03:36:27;;;;;;;8.33;3.90;;;16.50;99.90;;;;;;4972466;28;20647;-70
2022/09/02 03:38:53;;;;;;;7.70;3.83;;;16.50;99.90;;;;;;4972146;28;20238;-71
2022/09/02 03:41:20;;;;;;;6.47;3.50;;;16.60;99.90;;;;;;4972082;28;20176;-71
2022/09/02 03:43:45;;;;;;;4.87;4.00;;;16.60;99.90;;;;;;4971788;28;20179;-71
2022/09/02 03:46:12;;;;;;;5.27;3.80;;;16.50;99.90;;;;;;4972215;28;20164;-71
2022/09/02 03:48:39;;;;;;;12.60;4.70;;;16.60;99.90;;;;;;4972052;28;20195;-70
2022/09/02 03:51:06;;;;;;;19.53;4.93;;;16.60;99.90;;;;;;4972010;28;20164;-71
2022/09/02 03:53:32;;;;;;;9.87;4.30;;;16.50;99.90;;;;;;4971859;28;20179;-71
2022/09/02 03:56:13;;;;;;;8.97;4.50;;;16.50;99.90;;;;;;4971859;28;20252;-71
2022/09/02 03:58:39;;;;;;;11.37;4.47;;;16.50;99.90;;;;;;4970497;28;20171;-71
2022/09/02 04:01:05;;;;;;;13.57;4.30;;;16.40;99.90;;;;;;4970786;28;20208;-71
2022/09/02 04:03:31;;;;;;;12.03;4.50;;;16.40;99.90;;;;;;4970609;28;20180;-71
2022/09/02 04:05:57;;;;;;;11.73;4.50;;;16.30;1.00;;;;;;4971407;28;20172;-71
2022/09/02 04:08:23;;;;;;;12.67;4.53;;;16.20;1.00;;;;;;4972078;28;20183;-71
2022/09/02 04:10:49;;;;;;;11.70;3.90;;;16.10;1.00;;;;;;4971149;28;20183;-70
2022/09/02 04:13:15;;;;;;;6.77;4.67;;;16.10;1.00;;;;;;4969939;28;20335;-71
2022/09/02 04:15:43;;;;;;;9.20;4.27;;;16.10;1.00;;;;;;4972027;28;20247;-71
2022/09/02 04:18:10;;;;;;;7.43;4.23;;;16.10;1.00;;;;;;4971337;28;20207;-71
2022/09/02 04:20:40;;;;;;;4.77;4.27;;;16.10;1.00;;;;;;4971649;28;20168;-71
2022/09/02 04:23:06;;;;;;;7.10;4.63;;;16.10;1.00;;;;;;4971458;28;20172;-71
2022/09/02 04:25:32;;;;;;;9.13;4.43;;;16.00;1.00;;;;;;4971157;28;20249;-70
2022/09/02 04:27:58;;;;;;;10.93;4.60;;;16.00;1.00;;;;;;4971676;28;20205;-71
2022/09/02 04:30:24;;;;;;;9.47;4.80;;;16.00;1.00;;;;;;4971356;28;20183;-71
2022/09/02 04:32:51;;;;;;;7.97;4.40;;;16.00;1.00;;;;;;4971500;28;20172;-71
2022/09/02 04:35:17;;;;;;;10.73;4.87;;;16.10;1.00;;;;;;4971277;28;20607;-71
2022/09/02 04:37:45;;;;;;;9.70;5.30;;;16.10;1.00;;;;;;4971266;28;20211;-70
2022/09/02 04:40:11;;;;;;;8.73;5.07;;;16.00;1.00;;;;;;4970311;28;20207;-70
2022/09/02 04:42:37;;;;;;;14.33;5.47;;;16.00;1.00;;;;;;4971275;28;20245;-71
2022/09/02 04:45:03;;;;;;;17.03;5.50;;;15.90;1.00;;;;;;4971288;28;20493;-70
2022/09/02 04:47:29;;;;;;;13.83;5.00;;;15.90;1.00;;;;;;4971303;28;20195;-71
2022/09/02 04:49:55;;;;;;;16.83;5.67;;;15.90;1.00;;;;;;4971075;28;20179;-71
2022/09/02 04:52:21;;;;;;;18.80;5.53;;;16.00;1.00;;;;;;4970471;28;20675;-71
2022/09/02 04:54:47;;;;;;;18.93;5.57;;;16.00;1.00;;;;;;4970434;28;20646;-71
2022/09/02 04:57:13;;;;;;;14.73;5.53;;;16.10;1.00;;;;;;4973068;28;20218;-71
2022/09/02 04:59:38;;;;;;;17.70;5.53;;;16.10;1.00;;;;;;4974704;28;20251;-73
2022/09/02 05:02:05;;;;;;;16.03;5.80;;;16.10;1.00;;;;;;4974493;28;20226;-72
2022/09/02 05:04:32;;;;;;;20.97;5.37;;;16.00;1.00;;;;;;4974043;28;20202;-71
2022/09/02 05:07:00;;;;;;;19.33;5.97;;;16.00;1.00;;;;;;4974042;28;20731;-71
2022/09/02 05:09:28;;;;;;;22.50;5.63;;;16.10;1.00;;;;;;4973673;28;20172;-71
2022/09/02 05:11:56;;;;;;;17.90;5.93;;;16.10;1.00;;;;;;4973366;28;20195;-72
2022/09/02 05:14:23;;;;;;;18.67;5.87;;;16.10;1.00;;;;;;4972762;28;20361;-71
2022/09/02 05:16:52;;;;;;;14.87;5.07;;;16.20;1.00;;;;;;4973284;28;20199;-71
2022/09/02 05:19:22;;;;;;;17.43;5.63;;;16.30;1.00;;;;;;4973738;28;20202;-71
2022/09/02 05:21:48;;;;;;;19.00;6.10;;;16.30;1.00;;;;;;4972808;28;20180;-71
2022/09/02 05:24:15;;;;;;;16.97;5.67;;;16.40;1.00;;;;;;4972827;28;20217;-72
2022/09/02 05:26:41;;;;;;;17.90;6.17;;;16.40;1.00;;;;;;4973557;28;20207;-71
2022/09/02 05:29:07;;;;;;;27.47;6.10;;;16.40;1.00;;;;;;4973464;28;20211;-70
2022/09/02 05:31:33;;;;;;;24.57;6.37;;;16.50;1.00;;;;;;4973248;28;20184;-71
2022/09/02 05:33:59;;;;;;;19.57;5.50;;;16.70;1.00;;;;;;4973366;28;20172;-71
2022/09/02 05:36:25;;;;;;;11.17;6.00;;;16.80;99.90;;;;;;4972930;28;20212;-71
2022/09/02 05:38:50;;;;;;;20.90;6.10;;;16.80;99.90;;;;;;4972652;28;20176;-71
2022/09/02 05:41:22;;;;;;;19.37;5.70;;;17.10;99.90;;;;;;4972731;28;20204;-72
2022/09/02 05:43:49;;;;;;;18.77;5.97;;;17.70;1.00;;;;;;4973509;28;20184;-71
2022/09/02 05:46:18;;;;;;;19.47;6.43;;;18.00;1.00;;;;;;4972605;28;20659;-70
2022/09/02 05:51:29;;;;;;;23.48;6.22;;;18.60;1.00;;;;;;4972278;28;20745;-72
2022/09/02 05:53:56;;;;;;;20.67;6.22;;;19.00;99.90;;;;;;4972745;28;20172;-72
2022/09/02 05:56:22;;;;;;;31.35;5.95;;;19.80;1.00;;;;;;4972566;28;20690;-72
2022/09/02 05:58:48;;;;;;;42.25;7.40;;;21.00;1.00;;;;;;4972443;28;20172;-72
2022/09/02 06:01:16;;;;;;;25.98;6.53;;;22.10;1.00;;;;;;4972258;28;20244;-73
2022/09/02 06:03:42;;;;;;;31.13;7.35;;;23.20;1.00;;;;;;4972694;28;20325;-72
2022/09/02 06:06:08;;;;;;;22.25;6.97;;;24.30;99.90;;;;;;4972650;28;20639;-74
2022/09/02 06:08:34;;;;;;;26.95;6.63;;;25.20;99.90;;;;;;4972334;28;20627;-74
2022/09/02 06:11:01;;;;;;;17.33;6.22;;;26.30;99.90;;;;;;4972374;28;20258;-74
2022/09/02 06:13:28;;;;;;;20.98;6.18;;;27.00;99.90;;;;;;4972337;28;20242;-75
2022/09/02 06:15:54;;;;;;;21.65;6.80;;;27.50;99.90;;;;;;4972114;28;20184;-76
2022/09/02 06:18:20;;;;;;;19.75;5.65;;;28.70;99.90;;;;;;4971688;28;20222;-75
2022/09/02 06:20:47;;;;;;;19.52;5.95;;;29.70;99.90;;;;;;4972550;28;20172;-76
2022/09/02 06:23:14;;;;;;;20.63;5.70;;;30.20;99.90;;;;;;4972434;28;20180;-76
2022/09/02 06:25:43;;;;;;;19.70;6.53;;;30.60;99.90;;;;;;4971991;28;20263;-75
2022/09/02 06:28:09;;;;;;;15.75;5.43;;;30.90;93.50;;;;;;4971891;28;20186;-75
2022/09/02 06:30:38;;;;;;;13.25;6.00;;;31.30;80.70;;;;;;4971805;28;20601;-75
2022/09/02 06:33:05;;;;;;;19.70;5.50;;;31.70;70.70;;;;;;4972097;28;20207;-76
2022/09/02 06:35:35;;;;;;;24.25;6.05;;;31.10;63.20;;;;;;4972467;28;20176;-75
2022/09/02 06:38:01;;;;;;;12.35;5.57;;;30.30;60.40;;;;;;4971349;28;20249;-75
2022/09/02 06:40:27;;;;;;;15.93;6.07;;;29.90;62.20;;;;;;4979356;28;20180;-74
2022/09/02 06:42:53;;;;;;;14.13;5.78;;;29.60;68.90;;;;;;4985504;28;20179;-73
2022/09/02 06:45:19;;;;;;;13.82;5.57;;;29.50;71.90;;;;;;5024695;28;20194;-72
2022/09/02 06:47:44;;;;;;;9.80;5.22;;;29.50;70.40;;;;;;5012366;28;20173;-73
2022/09/02 06:50:10;;;;;;;11.07;5.28;;;28.40;82.60;;;;;;5037203;28;20645;-73
2022/09/02 06:52:37;;;;;;;5.80;3.95;;;28.50;87.50;;;;;;4989592;28;20627;-73
2022/09/02 06:55:03;;;;;;;4.40;4.00;;;27.10;96.60;;;;;;5055708;28;20168;-73
2022/09/02 06:57:29;;;;;;;5.97;4.28;;;26.20;99.90;;;;;;4987412;28;20203;-73
2022/09/02 06:59:55;;;;;;;6.07;4.20;;;26.10;99.90;;;;;;5017280;28;20169;-73
2022/09/02 07:02:20;;;;;;;5.38;4.35;;;26.00;99.90;;;;;;5031206;28;20188;-73
2022/09/02 07:07:30;;;;;;;4.55;3.72;;;26.20;99.90;;;;;;5004958;28;20199;-74
2022/09/02 07:09:55;;;;;;;4.30;3.90;;;26.40;99.90;;;;;;5045199;28;20167;-74
2022/09/02 07:12:21;;;;;;;4.47;3.90;;;26.50;99.90;;;;;;5032083;28;20556;-75
2022/09/02 07:14:47;;;;;;;5.20;4.10;;;27.50;99.90;;;;;;5016686;28;20235;-75
2022/09/02 07:17:20;;;;;;;3.65;3.30;;;28.30;99.90;;;;;;5030802;28;20212;-74
2022/09/02 07:19:46;;;;;;;4.65;3.72;;;29.10;99.90;;;;;;5022517;28;20167;-74
2022/09/02 07:22:12;;;;;;;5.57;4.13;;;29.00;98.00;;;;;;5028071;28;20200;-76
2022/09/02 07:24:39;;;;;;;3.90;3.60;;;29.20;96.90;;;;;;5022010;28;20171;-75
2022/09/02 07:27:05;;;;;;;5.22;3.42;;;30.40;84.10;;;;;;5056684;28;20177;-76
2022/09/02 07:29:32;;;;;;;3.30;3.10;;;31.40;62.60;;;;;;5004972;28;20176;-75
2022/09/02 07:31:58;;;;;;;3.40;3.10;;;32.10;74.00;;;;;;5044280;28;20171;-76
2022/09/02 07:34:24;;;;;;;4.82;3.70;;;31.50;46.90;;;;;;4988814;28;20176;-76
2022/09/02 07:36:50;;;;;;;6.07;3.47;;;30.60;46.00;;;;;;5048330;28;20659;-76
2022/09/02 07:39:20;;;;;;;3.28;2.97;;;29.90;52.60;;;;;;5004230;28;20286;-75
2022/09/02 07:41:49;;;;;;;6.15;3.30;;;30.40;50.30;;;;;;5050751;28;20174;-76
2022/09/02 07:44:16;;;;;;;4.80;3.38;;;31.40;49.60;;;;;;5027973;28;20263;-76
2022/09/02 07:46:42;;;;;;;4.95;3.28;;;29.90;51.70;;;;;;5019554;28;20183;-76
2022/09/02 07:49:10;;;;;;;2.80;2.70;;;30.10;49.00;;;;;;5057765;28;20651;-76
2022/09/02 07:51:38;;;;;;;4.43;3.28;;;30.40;71.00;;;;;;5005404;28;20659;-76
2022/09/02 07:54:05;;;;;;;3.95;3.17;;;30.90;45.80;;;;;;5039932;28;20178;-77
2022/09/02 07:56:31;;;;;;;3.33;3.10;;;31.70;41.20;;;;;;5036796;28;20668;-77
2022/09/02 07:58:57;;;;;;;4.45;3.70;;;31.50;33.70;;;;;;4994483;28;20248;-77
2022/09/02 08:01:23;;;;;;;4.15;3.08;;;32.10;30.80;;;;;;4973965;28;20617;-76
2022/09/02 08:03:49;;;;;;;3.10;3.00;;;32.30;27.40;;;;;;5013054;28;20253;-79
2022/09/02 08:06:16;;;;;;;3.70;3.40;;;32.60;24.20;;;;;;5033942;28;20175;-78
2022/09/02 08:08:42;;;;;;;5.07;4.60;;;32.30;22.00;;;;;;5043023;28;20624;-76
2022/09/02 08:11:08;;;;;;;4.43;3.85;;;31.90;21.40;;;;;;5003545;28;20587;-77
2022/09/02 08:13:35;;;;;;;6.53;3.78;;;31.90;21.70;;;;;;4957928;28;20265;-75
2022/09/02 08:16:02;;;;;;;3.95;3.65;;;31.80;25.10;;;;;;5020382;28;20218;-75
2022/09/02 08:18:28;;;;;;;3.58;3.35;;;31.00;24.80;;;;;;5026448;28;20218;-74
2022/09/02 08:20:54;;;;;;;3.97;3.63;;;30.30;28.60;;;;;;5050242;28;20188;-75
2022/09/02 08:23:20;;;;;;;4.07;3.67;;;29.70;31.80;;;;;;5004141;28;20179;-77
2022/09/02 08:25:46;;;;;;;3.47;3.10;;;30.40;35.80;;;;;;5050782;28;20178;-76
2022/09/02 08:28:11;;;;;;;7.00;3.58;;;30.30;32.70;;;;;;5026154;28;20193;-76
2022/09/02 08:30:37;;;;;;;5.15;3.55;;;30.90;30.30;;;;;;5020429;28;20635;-75
2022/09/02 08:33:03;;;;;;;3.78;3.10;;;30.50;29.90;;;;;;5053179;28;20565;-75
2022/09/02 08:35:28;;;;;;;5.30;3.30;;;30.60;33.00;;;;;;5000566;28;20184;-77
2022/09/02 08:37:56;;;;;;;3.92;3.60;;;31.20;48.70;;;;;;5045540;28;20234;-78
2022/09/02 08:40:27;;;;;;;4.35;3.05;;;32.20;26.50;;;;;;5031860;28;20173;-78
2022/09/02 08:42:54;;;;;;;4.82;3.22;;;32.60;22.30;;;;;;5011077;28;20228;-78
2022/09/02 08:45:29;;;;;;;5.28;3.25;;;32.30;22.60;;;;;;5057445;28;20267;-77
2022/09/02 08:48:11;;;;;;;3.45;3.20;;;31.90;24.70;;;;;;5047075;28;20259;-76
2022/09/02 08:50:40;;;;;;;3.40;3.15;;;32.30;19.20;;;;;;5021695;28;20601;-77
2022/09/02 08:54:13;;;;;;;3.92;2.85;;;32.60;17.60;;;;;;5056459;28;20181;-76
2022/09/02 08:56:40;;;;;;;4.18;3.20;;;33.00;15.70;;;;;;4941654;28;20208;-77
2022/09/02 08:59:08;;;;;;;4.82;3.70;;;33.20;13.40;;;;;;4943130;28;20394;-77
2022/09/02 09:02:08;;;;;;;6.70;6.10;;;34.00;9.80;;;;;;4973404;28;20183;-76
2022/09/02 09:04:54;;;;;;;3.20;2.85;;;31.30;19.70;;;;;;5037109;28;20172;-75
2022/09/02 09:07:26;;;;;;;3.78;2.95;;;32.20;18.60;;;;;;5003860;28;20179;-74
2022/09/02 09:10:13;;;;;;;3.80;3.00;;;31.50;18.50;;;;;;5047104;28;20246;-75
2022/09/02 09:12:51;;;;;;;3.13;2.88;;;31.80;21.10;;;;;;5041245;28;20268;-76
2022/09/02 09:15:29;;;;;;;3.63;2.90;;;32.00;19.10;;;;;;5003086;28;20215;-78
2022/09/02 09:17:58;;;;;;;3.40;3.10;;;31.30;22.40;;;;;;5045118;28;20275;-77
2022/09/02 09:20:26;;;;;;;3.50;2.78;;;31.20;20.60;;;;;;5032534;28;20167;-77
2022/09/02 09:22:57;;;;;;;3.03;2.92;;;31.30;21.30;;;;;;5012106;28;20211;-76
2022/09/02 09:25:29;;;;;;;5.13;3.45;;;30.40;23.10;;;;;;5057458;28;20165;-76
2022/09/02 09:27:59;;;;;;;3.83;3.40;;;29.20;34.00;;;;;;5015574;28;20169;-77
2022/09/02 09:30:25;;;;;;;3.28;2.78;;;29.90;36.10;;;;;;5027684;28;20229;-78
2022/09/02 09:32:59;;;;;;;4.03;3.10;;;30.80;29.40;;;;;;5047385;28;20621;-78
2022/09/02 09:35:26;;;;;;;3.88;3.50;;;30.90;46.20;;;;;;4998105;28;20187;-77
2022/09/02 09:37:54;;;;;;;4.15;3.67;;;30.60;48.30;;;;;;5077848;28;20203;-77
2022/09/02 09:40:19;;;;;;;7.55;5.07;;;30.00;29.10;;;;;;5029303;28;20573;-77
2022/09/02 09:42:47;;;;;;;3.55;3.35;;;30.50;31.10;;;;;;5018021;28;20221;-78
2022/09/02 09:45:59;;;;;;;5.75;3.55;;;29.70;37.90;;;;;;5092730;28;20512;-78
2022/09/02 09:48:30;;;;;;;3.45;3.25;;;29.90;38.70;;;;;;5065504;28;20180;-77
2022/09/02 09:50:56;;;;;;;3.38;3.10;;;29.50;36.20;;;;;;5012961;28;20186;-78
2022/09/02 09:53:30;;;;;;;4.60;4.20;;;30.20;35.60;;;;;;5059591;28;20686;-76
2022/09/02 09:56:14;;;;;;;4.63;3.55;;;29.80;40.60;;;;;;5019586;28;20217;-76
2022/09/02 09:58:40;;;;;;;4.32;2.90;;;29.20;44.40;;;;;;5022387;28;20194;-77
2022/09/02 10:01:21;;;;;;;3.45;2.92;;;29.80;42.30;;;;;;5058609;28;20180;-77
2022/09/02 10:04:08;;;;;;;4.28;2.97;;;30.70;35.60;;;;;;4963613;28;20183;-80
2022/09/02 10:06:42;;;;;;;4.93;2.97;;;31.50;29.80;;;;;;5041293;28;20263;-77
2022/09/02 10:09:13;;;;;;;4.13;3.67;;;31.30;26.60;;;;;;5005606;28;20177;-77
2022/09/02 10:12:06;;;;;;;3.70;3.40;;;30.70;27.80;;;;;;4961134;28;20171;-76
2022/09/02 10:14:35;;;;;;;5.07;3.08;;;30.10;29.90;;;;;;5039204;28;20251;-75
2022/09/02 10:17:07;;;;;;;6.95;5.10;;;29.80;37.70;;;;;;5009280;28;20203;-75
2022/09/02 10:20:05;;;;;;;4.10;3.70;;;29.60;38.80;;;;;;5058345;28;20602;-76
2022/09/02 10:22:57;;;;;;;3.33;3.03;;;29.00;48.10;;;;;;5036542;28;20173;-76
2022/09/02 10:25:23;;;;;;;3.58;3.20;;;29.40;44.90;;;;;;4971267;28;20233;-77
2022/09/02 10:28:06;;;;;;;3.13;2.92;;;29.70;45.60;;;;;;5013727;28;20222;-76
2022/09/02 10:31:09;;;;;;;3.42;3.13;;;30.20;44.70;;;;;;5026390;28;20248;-76
2022/09/02 10:34:16;;;;;;;6.30;3.13;;;30.00;41.70;;;;;;4961156;28;20175;-76
2022/09/02 10:36:51;;;;;;;3.53;3.17;;;30.40;29.80;;;;;;5045459;28;20196;-76
2022/09/02 10:39:22;;;;;;;3.17;2.97;;;29.10;43.30;;;;;;5005366;28;20175;-75
2022/09/02 10:41:49;;;;;;;3.40;3.10;;;29.00;50.70;;;;;;5051240;28;20172;-75
2022/09/02 10:44:32;;;;;;;4.60;4.10;;;29.50;45.20;;;;;;5029264;28;20219;-76
2022/09/02 10:47:08;;;;;;;3.97;3.08;;;29.20;44.20;;;;;;5009332;28;20180;-77
2022/09/02 10:49:49;;;;;;;3.25;2.78;;;29.60;41.10;;;;;;4991308;28;20175;-76
2022/09/02 10:52:42;;;;;;;3.60;3.00;;;29.40;43.90;;;;;;4989799;28;20179;-77
2022/09/02 10:55:27;;;;;;;3.20;2.90;;;30.10;41.30;;;;;;4989938;28;20170;-76
2022/09/02 10:58:06;;;;;;;2.90;2.70;;;30.70;34.70;;;;;;4991058;28;20216;-77
2022/09/02 11:00:36;;;;;;;2.65;2.40;;;30.20;30.20;;;;;;4990101;28;20589;-77
2022/09/02 11:03:16;;;;;;;4.30;2.92;;;30.00;32.40;;;;;;4991255;28;20167;-77
2022/09/02 11:05:53;;;;;;;4.00;3.20;;;30.60;30.00;;;;;;4991782;28;20232;-77
2022/09/02 11:08:52;;;;;;;3.25;3.00;;;28.90;37.70;;;;;;4991422;28;20189;-76
2022/09/02 11:11:51;;;;;;;2.80;2.60;;;27.60;49.70;;;;;;4990557;28;20191;-77
2022/09/02 11:14:33;;;;;;;3.20;2.90;;;27.40;60.20;;;;;;4989781;28;20229;-77
2022/09/02 11:17:01;;;;;;;2.60;2.40;;;28.00;57.40;;;;;;4991285;28;20287;-76
2022/09/02 11:19:42;;;;;;;2.75;2.53;;;29.00;50.60;;;;;;4991461;28;20183;-77
2022/09/02 11:22:47;;;;;;;3.50;2.90;;;29.10;45.00;;;;;;4976382;28;20252;-75
2022/09/02 11:25:23;;;;;;;5.82;3.30;;;29.20;39.60;;;;;;4931510;29;20181;-76
2022/09/02 11:28:09;;;;;;;3.53;3.22;;;29.20;44.80;;;;;;4930551;28;20411;-76
2022/09/02 11:31:01;;;;;;;2.65;2.55;;;29.10;46.90;;;;;;4958340;28;20271;-76
2022/09/02 11:33:53;;;;;;;2.67;2.53;;;29.50;43.80;;;;;;4953316;28;20188;-75
2022/09/02 11:36:19;;;;;;;3.63;2.95;;;28.90;41.90;;;;;;4953946;28;20191;-77
2022/09/02 11:38:58;;;;;;;2.88;2.67;;;28.60;44.60;;;;;;4970657;28;20179;-76
2022/09/02 11:41:48;;;;;;;2.47;2.38;;;28.70;44.70;;;;;;4970680;28;20294;-76
2022/09/02 11:44:40;;;;;;;2.55;2.40;;;29.50;40.20;;;;;;4971659;28;20176;-76
2022/09/02 11:47:33;;;;;;;2.55;2.35;;;30.30;32.80;;;;;;4970684;28;20180;-75
2022/09/02 11:50:31;;;;;;;6.80;2.90;;;30.00;29.30;;;;;;4971360;28;20176;-77
2022/09/02 11:53:15;;;;;;;2.67;2.50;;;29.70;29.60;;;;;;4961758;28;20208;-75
2022/09/02 11:55:49;;;;;;;2.70;2.50;;;29.40;27.90;;;;;;4970257;28;20237;-75
2022/09/02 11:58:34;;;;;;;3.17;2.58;;;29.50;26.30;;;;;;4971014;28;20222;-77
2022/09/02 12:01:08;;;;;;;2.97;2.70;;;30.10;26.50;;;;;;4969582;28;20620;-76
2022/09/02 12:03:34;;;;;;;2.40;2.20;;;29.70;22.50;;;;;;4970768;28;20267;-75
2022/09/02 12:06:13;;;;;;;2.15;1.90;;;29.00;22.80;;;;;;4971137;28;20210;-76
2022/09/02 12:08:41;;;;;;;3.25;2.50;;;28.80;26.70;;;;;;4971449;28;20172;-76
2022/09/02 12:11:08;;;;;;;3.28;3.08;;;28.90;25.90;;;;;;4970925;28;20172;-77
2022/09/02 12:13:43;;;;;;;2.25;2.08;;;28.80;25.50;;;;;;4970332;28;20311;-76
2022/09/02 12:16:15;;;;;;;5.10;2.80;;;28.70;27.40;;;;;;4971181;28;20182;-75
2022/09/02 12:18:45;;;;;;;2.40;2.30;;;28.60;28.10;;;;;;4970473;28;20261;-75
2022/09/02 12:21:31;;;;;;;2.25;2.15;;;28.00;29.30;;;;;;4970914;28;20169;-77
2022/09/02 12:23:57;;;;;;;5.00;2.65;;;27.60;31.00;;;;;;4970506;28;20180;-77
2022/09/02 12:26:39;;;;;;;2.50;2.30;;;27.40;31.10;;;;;;4970839;28;20170;-76
2022/09/02 12:29:23;;;;;;;3.33;2.47;;;27.10;35.10;;;;;;4971314;28;20171;-76
2022/09/02 12:31:51;;;;;;;3.00;2.63;;;27.30;32.80;;;;;;4971041;28;20176;-76
2022/09/02 12:34:19;;;;;;;3.97;2.50;;;27.40;30.50;;;;;;4969724;28;20172;-76
2022/09/02 12:36:59;;;;;;;3.30;3.00;;;27.50;31.30;;;;;;4970320;28;20203;-77
2022/09/02 12:39:26;;;;;;;3.00;2.10;;;27.50;30.00;;;;;;4995652;28;20326;-76
2022/09/02 12:42:06;;;;;;;3.30;2.65;;;27.50;28.30;;;;;;4968614;28;20168;-77
2022/09/02 12:44:50;;;;;;;2.97;2.38;;;27.50;28.30;;;;;;4971381;28;20287;-76
2022/09/02 12:47:30;;;;;;;11.82;2.70;;;27.50;25.80;;;;;;4970374;28;20521;-75
2022/09/02 12:50:05;;;;;;;9.10;2.90;;;27.50;28.60;;;;;;4982955;28;20187;-75
2022/09/02 12:52:33;;;;;;;3.60;2.30;;;27.70;27.60;;;;;;4971373;28;20542;-76
2022/09/02 12:55:19;;;;;;;2.55;2.40;;;28.10;23.30;;;;;;4977677;28;20168;-75
2022/09/02 12:57:50;;;;;;;3.47;3.15;;;27.80;24.60;;;;;;4970605;28;20281;-75
2022/09/02 13:00:45;;;;;;;7.53;3.00;;;27.70;24.30;;;;;;5030745;28;20168;-75
2022/09/02 13:03:45;;;;;;;5.78;2.55;;;27.90;24.60;;;;;;5001727;28;20175;-77
2022/09/02 13:06:24;;;;;;;18.02;3.75;;;28.10;19.00;;;;;;5032772;28;20202;-75
2022/09/02 13:09:16;;;;;;;2.53;2.20;;;28.40;20.50;;;;;;4979161;28;20183;-74
2022/09/02 13:12:23;;;;;;;2.80;2.50;;;28.40;17.40;;;;;;4961187;28;20212;-75